East Bay Causeway, FL current weather conditions

sailwx.info

Wind from 010 at 0 knots gusting 7

Last reported at 2020-Jan-20 16:30 UTC.
Time now 2020-Jan-20 18:10 UTC

Location: N 27°56' W 082°26'.
View on Google Maps.

See reports from other nearby stations

  
Tides and Currents Weather Stations Pressure Air Temp Water Temp Dewpoint Dewpoint Depression Visibility Wind Speed Wind Dir Waves Ship Positions
date/time (UTC)wind fromknots sea level pressurealtimeterstation pressurevisibilityair tempwater tempwave heightnotes
2020-Jan-20 16:30 010 0 gusting 7
2020-Jan-20 16:24 005 5 gusting 6
2020-Jan-20 16:18 008 6 gusting 7
2020-Jan-20 16:12 019 5 gusting 9
2020-Jan-20 16:06 009 5 gusting 7
2020-Jan-20 16:00 348 3 gusting 7
2020-Jan-20 15:54
2020-Jan-20 15:48 010 6 gusting 9
2020-Jan-20 15:42 008 6 gusting 11
2020-Jan-20 15:36 003 5 gusting 9
2020-Jan-20 15:30 010 7 gusting 12
2020-Jan-20 15:24 003 6 gusting 11
2020-Jan-20 15:18 009 7 gusting 11
2020-Jan-20 15:12 015 9 gusting 11
2020-Jan-20 15:06 001 7 gusting 13
2020-Jan-20 15:00 350 7 gusting 13
2020-Jan-20 14:54 007 12 gusting 15
2020-Jan-20 14:48 002 9 gusting 13
2020-Jan-20 14:42 005 10 gusting 14
2020-Jan-20 14:36 357 7 gusting 13
2020-Jan-20 14:30 012 12 gusting 16
2020-Jan-20 14:24 007 12 gusting 17
2020-Jan-20 14:18 007 12 gusting 17
2020-Jan-20 14:12 014 12 gusting 16
2020-Jan-20 14:06 013 13 gusting 15
2020-Jan-20 14:00 014 10 gusting 15
2020-Jan-20 13:54 013 12 gusting 16
2020-Jan-20 13:48 012 12 gusting 15
2020-Jan-20 13:42 009 12 gusting 15
2020-Jan-20 13:36 014 11 gusting 16
2020-Jan-20 13:30 013 11 gusting 15
2020-Jan-20 13:24 006 11 gusting 16
2020-Jan-20 13:18 008 8 gusting 14
2020-Jan-20 13:12 008 10 gusting 13
2020-Jan-20 13:06 005 10 gusting 15
2020-Jan-20 13:00 007 10 gusting 15
2020-Jan-20 12:54 359 8 gusting 13
2020-Jan-20 12:48 003 8 gusting 14
2020-Jan-20 12:42 358 6 gusting 12
2020-Jan-20 12:36 002 7 gusting 12
2020-Jan-20 12:30 002 7 gusting 13
2020-Jan-20 12:24 351 7 gusting 12
2020-Jan-20 12:18 003 9 gusting 13
2020-Jan-20 12:12
2020-Jan-20 12:06 002 9 gusting 13
2020-Jan-20 12:00
2020-Jan-20 11:54 001 8 gusting 13
2020-Jan-20 11:48 002 7 gusting 12
2020-Jan-20 11:42 352 6 gusting 13
2020-Jan-20 11:36 351 7 gusting 14
2020-Jan-20 11:30 004 9 gusting 14
2020-Jan-20 11:24 001 10 gusting 14
2020-Jan-20 11:18 359 7 gusting 13
2020-Jan-20 11:12 006 7 gusting 15
2020-Jan-20 11:06 006 11 gusting 16
2020-Jan-20 11:00 006 10 gusting 15
2020-Jan-20 10:54 359 9 gusting 15
2020-Jan-20 10:48 001 10 gusting 15
2020-Jan-20 10:42 358 9 gusting 14
2020-Jan-20 10:36 358 8 gusting 13
2020-Jan-20 10:30 001 8 gusting 13
2020-Jan-20 10:24 003 9 gusting 14
2020-Jan-20 10:18 009 12 gusting 17
2020-Jan-20 10:12 005 11 gusting 17
2020-Jan-20 10:06 005 9 gusting 16
2020-Jan-20 10:00 002 10 gusting 15
2020-Jan-20 09:54 006 11 gusting 15
2020-Jan-20 09:48 007 12 gusting 17
2020-Jan-20 09:42 358 11 gusting 19
2020-Jan-20 09:36 002 12 gusting 19
2020-Jan-20 09:30 002 12 gusting 18
2020-Jan-20 09:24 359 10 gusting 18
2020-Jan-20 09:18 003 13 gusting 18
2020-Jan-20 09:12 001 12 gusting 18
2020-Jan-20 09:06 354 10 gusting 17
2020-Jan-20 09:00 351 11 gusting 16
2020-Jan-20 08:54 358 11 gusting 17
2020-Jan-20 08:48 351 9 gusting 14
2020-Jan-20 08:42 355 8 gusting 14
2020-Jan-20 08:36 008 11 gusting 16
2020-Jan-20 08:30 012 9 gusting 14
2020-Jan-20 08:24
2020-Jan-20 08:18 357 9 gusting 15
2020-Jan-20 08:12 005 11 gusting 14
2020-Jan-20 08:06 003 10 gusting 15
2020-Jan-20 08:00 356 8 gusting 13
2020-Jan-20 07:54 355 8 gusting 13
2020-Jan-20 07:48 357 7 gusting 13
2020-Jan-20 07:42 356 8 gusting 13
2020-Jan-20 07:36 011 8 gusting 13
2020-Jan-20 07:30 012 9 gusting 13
2020-Jan-20 07:24 013 7 gusting 13
2020-Jan-20 07:18 008 10 gusting 14
2020-Jan-20 07:12 010 11 gusting 15
2020-Jan-20 07:06 347 7 gusting 13
2020-Jan-20 07:00 340 9 gusting 13
2020-Jan-20 06:54 342 8 gusting 13
2020-Jan-20 06:48 332 9 gusting 15
2020-Jan-20 06:42 331 9 gusting 15
2020-Jan-20 06:36 341 8 gusting 13
2020-Jan-20 06:30 341 7 gusting 14
2020-Jan-20 06:24 342 8 gusting 14
2020-Jan-20 06:18 348 12 gusting 17
2020-Jan-20 06:12 343 8 gusting 14
2020-Jan-20 06:06 337 8 gusting 13
2020-Jan-20 06:00 328 7 gusting 12
2020-Jan-20 05:54 338 6 gusting 14
2020-Jan-20 05:48 315 6 gusting 14
2020-Jan-20 05:42 324 7 gusting 13
2020-Jan-20 05:36 325 6 gusting 13
2020-Jan-20 05:30 327 6 gusting 12
2020-Jan-20 05:24 328 7 gusting 11
2020-Jan-20 05:18 328 6 gusting 11
2020-Jan-20 05:12 335 5 gusting 11
2020-Jan-20 05:06 328 6 gusting 14
2020-Jan-20 05:00 316 6 gusting 11
2020-Jan-20 04:54 323 3 gusting 8
2020-Jan-20 04:48 324 6 gusting 11
2020-Jan-20 04:42 314 4 gusting 8
2020-Jan-20 04:36 313 6 gusting 11
2020-Jan-20 04:30 312 5 gusting 11
2020-Jan-20 04:24 310 6 gusting 11
2020-Jan-20 04:18 333 6 gusting 13
2020-Jan-20 04:12 322 6 gusting 12
2020-Jan-20 04:06 335 5 gusting 11
2020-Jan-20 04:00 320 6 gusting 10
2020-Jan-20 03:54 308 6 gusting 13
2020-Jan-20 03:48 322 6 gusting 10
2020-Jan-20 03:42 328 8 gusting 13
2020-Jan-20 03:36 321 7 gusting 12
2020-Jan-20 03:30 319 6 gusting 11
2020-Jan-20 03:24 320 6 gusting 12
2020-Jan-20 03:18 317 5 gusting 9
2020-Jan-20 03:12 333 6 gusting 11
2020-Jan-20 03:06 329 7 gusting 13
2020-Jan-20 03:00 312 6 gusting 12
2020-Jan-20 02:54 316 8 gusting 12
2020-Jan-20 02:48 322 6 gusting 10
2020-Jan-20 02:42 310 4 gusting 12
2020-Jan-20 02:36 318 8 gusting 13
2020-Jan-20 02:30 312 6 gusting 13
2020-Jan-20 02:24 318 8 gusting 12
2020-Jan-20 02:18 297 7 gusting 13
2020-Jan-20 02:12 289 6 gusting 11
2020-Jan-20 02:06 303 5 gusting 12
2020-Jan-20 02:00 299 5 gusting 10
2020-Jan-20 01:54 290 8 gusting 10
2020-Jan-20 01:48 312 6 gusting 9
2020-Jan-20 01:42 291 5 gusting 8
2020-Jan-20 01:36 301 3 gusting 8
2020-Jan-20 01:30 293 4 gusting 7
2020-Jan-20 01:24 281 6 gusting 8
2020-Jan-20 01:18 293 6 gusting 8
2020-Jan-20 01:12 305 3 gusting 6
2020-Jan-20 01:06 296 3 gusting 6
2020-Jan-20 01:00 327 1 gusting 6
2020-Jan-20 00:54 295 2 gusting 7
2020-Jan-20 00:48 291 5 gusting 7
2020-Jan-20 00:42 296 2 gusting 5
2020-Jan-20 00:36 292 2 gusting 6
2020-Jan-20 00:30 308 3 gusting 6
2020-Jan-20 00:24 312 3 gusting 6
2020-Jan-20 00:18 302 3 gusting 6
2020-Jan-20 00:12 301 6 gusting 9
2020-Jan-20 00:06 303 4 gusting 6
2020-Jan-20 00:00 305 4 gusting 7
2020-Jan-19 23:54 262 4 gusting 6
2020-Jan-19 23:36 247 1 gusting 3
2020-Jan-19 23:30 237 1 gusting 3
2020-Jan-19 23:24 195 2 gusting 4
2020-Jan-19 23:18 197 3 gusting 5
2020-Jan-19 23:12 183 3 gusting 6
2020-Jan-19 23:06 174 6 gusting 8
2020-Jan-19 23:00 179 4 gusting 6
2020-Jan-19 22:54 153 6 gusting 8
2020-Jan-19 22:48 157 7 gusting 9
2020-Jan-19 22:42 160 7 gusting 9
2020-Jan-19 22:36 161 7 gusting 9
2020-Jan-19 22:30 163 6 gusting 8
2020-Jan-19 22:24 165 6 gusting 8
2020-Jan-19 22:18 178 7 gusting 9
2020-Jan-19 22:12 169 6 gusting 10
2020-Jan-19 22:06 174 8 gusting 13
2020-Jan-19 22:00 173 8 gusting 10
2020-Jan-19 21:54 166 7 gusting 10
2020-Jan-19 21:48 176 6 gusting 9
2020-Jan-19 21:42 175 6 gusting 9
2020-Jan-19 21:36 202 8 gusting 11
2020-Jan-19 21:30 196 6 gusting 10
2020-Jan-19 21:24 190 6 gusting 9
2020-Jan-19 21:18 194 6 gusting 10
2020-Jan-19 21:12 173 7 gusting 12
2020-Jan-19 21:06 153 8 gusting 11
2020-Jan-19 21:00 166 6 gusting 9
2020-Jan-19 20:54 172 6 gusting 8
2020-Jan-19 20:48 174 6 gusting 12
2020-Jan-19 20:42 165 7 gusting 10
2020-Jan-19 20:36 172 6 gusting 10
2020-Jan-19 20:30 183 7 gusting 10
2020-Jan-19 20:24 175 7 gusting 9
2020-Jan-19 20:18 170 6 gusting 10
2020-Jan-19 20:12 175 8 gusting 10
2020-Jan-19 20:06 185 6 gusting 10
2020-Jan-19 20:00 164 9 gusting 11
2020-Jan-19 19:54 155 9 gusting 13
2020-Jan-19 19:48 149 12 gusting 13
2020-Jan-19 19:42 145 10 gusting 13
2020-Jan-19 19:36 155 9 gusting 11
2020-Jan-19 19:30 168 8 gusting 11
2020-Jan-19 19:24 170 7 gusting 10
2020-Jan-19 19:18 180 8 gusting 12
2020-Jan-19 19:12 175 6 gusting 10
2020-Jan-19 19:06 190 6 gusting 10
2020-Jan-19 19:00 203 6 gusting 10
2020-Jan-19 18:54 179 7 gusting 9
2020-Jan-19 18:48 172 6 gusting 11
2020-Jan-19 18:42 169 7 gusting 11
2020-Jan-19 18:36 186 6 gusting 10
2020-Jan-19 18:30 181 8 gusting 13
2020-Jan-19 18:24 192 6 gusting 10
2020-Jan-19 18:18 176 7 gusting 11
2020-Jan-19 18:12 186 9 gusting 10
2020-Jan-19 18:06 178 8 gusting 12
2020-Jan-19 18:00 181 8 gusting 11
2020-Jan-19 17:54 198 6 gusting 10
2020-Jan-19 17:48 212 8 gusting 10
2020-Jan-19 17:42 200 7 gusting 10
2020-Jan-19 17:36 199 5 gusting 6
2020-Jan-19 17:30 208 4 gusting 7
2020-Jan-19 17:24 213 4 gusting 7
2020-Jan-19 17:18 189 4 gusting 5
2020-Jan-19 17:12 168 3 gusting 6
2020-Jan-19 17:06 166 5 gusting 7
2020-Jan-19 17:00 163 4 gusting 6
2020-Jan-19 16:54 155 6 gusting 6
2020-Jan-19 16:48 161 5 gusting 6
2020-Jan-19 16:42 146 6 gusting 6
2020-Jan-19 16:36 145 6 gusting 7
2020-Jan-19 16:30 151 6 gusting 9
2020-Jan-19 16:24 144 7 gusting 9
2020-Jan-19 16:18 158 7 gusting 10
2020-Jan-19 16:12 156 7 gusting 10
2020-Jan-19 16:06 154 7 gusting 10
2020-Jan-19 16:00 162 8 gusting 10
2020-Jan-19 15:54 156 9 gusting 10
2020-Jan-19 15:48 149 8 gusting 10
2020-Jan-19 15:42 152 7 gusting 12
2020-Jan-19 15:36 152 9 gusting 12
2020-Jan-19 15:30 145 6 gusting 9
2020-Jan-19 15:24 140 7 gusting 8
2020-Jan-19 15:18 139 6 gusting 7
2020-Jan-19 15:12 146 6 gusting 9
2020-Jan-19 15:06 147 6 gusting 10
2020-Jan-19 15:00 134 9 gusting 11
2020-Jan-19 14:54 123 9 gusting 13
2020-Jan-19 14:48 124 9 gusting 12
2020-Jan-19 14:42 117 6 gusting 7
2020-Jan-19 14:36 109 4 gusting 9
2020-Jan-19 14:30 118 7 gusting 11
2020-Jan-19 14:24 118 6 gusting 7
2020-Jan-19 14:18 124 6 gusting 8
2020-Jan-19 14:12 120 5 gusting 6
2020-Jan-19 14:06 126 5 gusting 7
2020-Jan-19 14:00 128 6 gusting 7
2020-Jan-19 13:54 123 6 gusting 7
2020-Jan-19 13:48 127 6 gusting 7
2020-Jan-19 13:42 125 6 gusting 8
2020-Jan-19 13:36 128 7 gusting 8
2020-Jan-19 13:30 129 7 gusting 8
2020-Jan-19 13:24 130 6 gusting 7
2020-Jan-19 13:18 122 6 gusting 8
2020-Jan-19 13:12 125 6 gusting 7
2020-Jan-19 13:06 119 5 gusting 6
2020-Jan-19 13:00 105 3 gusting 6
2020-Jan-19 12:54 104 3 gusting 6
2020-Jan-19 12:48 113 4 gusting 6
2020-Jan-19 12:42 113 4 gusting 6
2020-Jan-19 12:36 120 5 gusting 6
2020-Jan-19 12:30 120 5 gusting 7
2020-Jan-19 12:24 114 4 gusting 6
2020-Jan-19 12:18 118 5 gusting 7
2020-Jan-19 12:12 127 6 gusting 6
2020-Jan-19 12:06 122 5 gusting 6
2020-Jan-19 12:00 115 4 gusting 6
2020-Jan-19 11:54 118 4 gusting 6
2020-Jan-19 11:48 107 3 gusting 5
2020-Jan-19 11:42 106 3 gusting 5
2020-Jan-19 11:36 111 3 gusting 5
2020-Jan-19 11:30 112 3 gusting 5
2020-Jan-19 11:24 110 3 gusting 5
2020-Jan-19 11:18 117 3 gusting 5
2020-Jan-19 11:12 115 4 gusting 5
2020-Jan-19 11:06 114 4 gusting 6
2020-Jan-19 11:00 120 4 gusting 5
2020-Jan-19 10:54 111 2 gusting 5
2020-Jan-19 10:48 114 4 gusting 6
2020-Jan-19 10:42 103 2 gusting 6
2020-Jan-19 10:36 107 3 gusting 6
2020-Jan-19 10:30 095 2 gusting 3
2020-Jan-19 10:24 108 2 gusting 5
2020-Jan-19 10:18 119 3 gusting 6
2020-Jan-19 10:12 108 2 gusting 4
2020-Jan-19 10:06 086 0 gusting 4
2020-Jan-19 10:00 100 2 gusting 6
2020-Jan-19 09:54 108 5 gusting 7
2020-Jan-19 09:48 107 3 gusting 6
2020-Jan-19 09:42 107 3 gusting 6
2020-Jan-19 09:36 114 6 gusting 8
2020-Jan-19 09:30 123 6 gusting 9
2020-Jan-19 09:24 115 5 gusting 6
2020-Jan-19 09:18 117 6 gusting 7
2020-Jan-19 09:12 116 4 gusting 7
2020-Jan-19 09:06 114 5 gusting 7
2020-Jan-19 09:00 111 6 gusting 7
2020-Jan-19 08:54 107 4 gusting 8
2020-Jan-19 08:48 102 5 gusting 8
2020-Jan-19 08:42 101 5 gusting 7
2020-Jan-19 08:36 100 4 gusting 6
2020-Jan-19 08:30 095 4 gusting 6
2020-Jan-19 08:24 095 4 gusting 7
2020-Jan-19 08:18 087 3 gusting 6
2020-Jan-19 08:12 094 4 gusting 6
2020-Jan-19 08:06 094 4 gusting 6
2020-Jan-19 08:00 093 4 gusting 6
2020-Jan-19 07:54 096 4 gusting 6
2020-Jan-19 07:48 097 2 gusting 4
2020-Jan-19 07:42 094 3 gusting 5
2020-Jan-19 07:36 092 2 gusting 4
2020-Jan-19 07:30 093 3 gusting 5
2020-Jan-19 07:24 093 2 gusting 4
2020-Jan-19 07:18 081 2 gusting 5
2020-Jan-19 07:12 078 3 gusting 6
2020-Jan-19 07:06 077 2 gusting 4
2020-Jan-19 07:00 077 2 gusting 5
2020-Jan-19 06:54 086 2 gusting 4
2020-Jan-19 06:48 084 2 gusting 4
2020-Jan-19 06:42 068 1 gusting 2
2020-Jan-19 06:36 086 1 gusting 4
2020-Jan-19 06:30 076 1 gusting 4
2020-Jan-19 06:24 083 1 gusting 4
2020-Jan-19 06:18 088 2 gusting 5
2020-Jan-19 06:12 093 2 gusting 5
2020-Jan-19 06:06 091 2 gusting 5
2020-Jan-19 06:00 099 4 gusting 6
2020-Jan-19 05:54 097 3 gusting 5
2020-Jan-19 05:48 090 3 gusting 5
2020-Jan-19 05:42 087 2 gusting 6
2020-Jan-19 05:36 110 3 gusting 6
2020-Jan-19 05:30 108 6 gusting 7
2020-Jan-19 05:24 115 4 gusting 7
2020-Jan-19 05:18 117 6 gusting 7
2020-Jan-19 05:12 114 6 gusting 9
2020-Jan-19 05:06 111 6 gusting 8
2020-Jan-19 05:00 107 5 gusting 7
2020-Jan-19 04:54 106 5 gusting 8
2020-Jan-19 04:48 107 6 gusting 9
2020-Jan-19 04:42 107 4 gusting 6
2020-Jan-19 04:36 102 3 gusting 7
2020-Jan-19 04:30 107 3 gusting 5
2020-Jan-19 04:24 101 3 gusting 6
2020-Jan-19 04:18 098 4 gusting 6
2020-Jan-19 04:12 100 3 gusting 6
2020-Jan-19 04:06 088 3 gusting 6
2020-Jan-19 04:00 085 2 gusting 6
2020-Jan-19 03:54 086 3 gusting 6
2020-Jan-19 03:48 075 3 gusting 5
2020-Jan-19 03:42 083 2 gusting 6
2020-Jan-19 03:36 089 1 gusting 5
2020-Jan-19 03:30 079 3 gusting 6
2020-Jan-19 03:24 087 3 gusting 6
2020-Jan-19 03:18 084 3 gusting 6
2020-Jan-19 03:12 085 3 gusting 6
2020-Jan-19 03:06 090 2 gusting 6
2020-Jan-19 03:00 094 2 gusting 7
2020-Jan-19 02:54 091 4 gusting 7
2020-Jan-19 02:48 088 4 gusting 6
2020-Jan-19 02:42 090 4 gusting 7
2020-Jan-19 02:36 086 3 gusting 7
2020-Jan-19 02:30 088 3 gusting 7
2020-Jan-19 02:24 088 5 gusting 8
2020-Jan-19 02:18 088 3 gusting 7
2020-Jan-19 02:12 085 6 gusting 10
2020-Jan-19 02:06 081 5 gusting 8
2020-Jan-19 02:00 081 5 gusting 7
2020-Jan-19 01:54 080 5 gusting 8
2020-Jan-19 01:30 075 3 gusting 7
2020-Jan-19 01:24 077 3 gusting 8
2020-Jan-19 01:18 078 3 gusting 8
2020-Jan-19 01:12 075 4 gusting 8
2020-Jan-19 01:06 075 3 gusting 9
2020-Jan-19 01:00 075 5 gusting 7
2020-Jan-19 00:54 081 3 gusting 7
2020-Jan-19 00:48 070 4 gusting 6
2020-Jan-19 00:42 072 4 gusting 7
2020-Jan-19 00:36 073 4 gusting 6
2020-Jan-19 00:30 066 4 gusting 6
2020-Jan-19 00:24 064 3 gusting 4
2020-Jan-19 00:18 064 2 gusting 5
2020-Jan-19 00:12 067 3 gusting 5
2020-Jan-19 00:06 064 4 gusting 6
2020-Jan-19 00:00 067 4 gusting 5
2020-Jan-18 23:54 068 3 gusting 4
2020-Jan-18 23:42 061 2 gusting 3
2020-Jan-18 23:36 064 2 gusting 4
2020-Jan-18 23:30 068 3 gusting 5
2020-Jan-18 23:24 066 4 gusting 5
2020-Jan-18 23:18 070 3 gusting 5
2020-Jan-18 23:12 070 3 gusting 4
2020-Jan-18 23:06 071 2 gusting 4
2020-Jan-18 23:00 069 3 gusting 4
2020-Jan-18 22:54 068 3 gusting 4
2020-Jan-18 22:48 070 2 gusting 3
2020-Jan-18 22:42 074 1 gusting 3
2020-Jan-18 22:36 077 2 gusting 4
2020-Jan-18 22:30 072 2 gusting 6
2020-Jan-18 22:24 078 3 gusting 5
2020-Jan-18 22:18 088 3 gusting 5
2020-Jan-18 22:12 093 2 gusting 5
2020-Jan-18 22:06 091 2 gusting 6
2020-Jan-18 22:00 088 2 gusting 7
2020-Jan-18 21:54 083 3 gusting 6
2020-Jan-18 21:48 076 3 gusting 6
2020-Jan-18 21:42 095 4 gusting 8
2020-Jan-18 21:36 103 5 gusting 6
2020-Jan-18 21:30 100 3 gusting 7
2020-Jan-18 21:24 104 5 gusting 9
2020-Jan-18 21:18 100 6 gusting 9
2020-Jan-18 21:12 094 4 gusting 10
2020-Jan-18 21:06 101 5 gusting 10
2020-Jan-18 21:00 101 3 gusting 6
2020-Jan-18 20:54 082 3 gusting 7
2020-Jan-18 20:48 072 3 gusting 8
2020-Jan-18 20:42 080 3 gusting 8
2020-Jan-18 20:36 069 6 gusting 9
2020-Jan-18 20:30 094 5 gusting 9
2020-Jan-18 20:24 088 4 gusting 9
2020-Jan-18 20:18 072 6 gusting 11
2020-Jan-18 20:12 064 6 gusting 10
2020-Jan-18 20:06 076 6 gusting 10
2020-Jan-18 20:00 093 3 gusting 9
2020-Jan-18 19:54 084 3 gusting 9
2020-Jan-18 19:48 076 6 gusting 11
2020-Jan-18 19:42 102 4 gusting 8
2020-Jan-18 19:36 108 4 gusting 9
2020-Jan-18 19:30 106 6 gusting 15
2020-Jan-18 19:24 086 5 gusting 10
2020-Jan-18 19:18 105 7 gusting 12
2020-Jan-18 19:12 102 5 gusting 9
2020-Jan-18 19:06 112 7 gusting 10
2020-Jan-18 19:00 107 6 gusting 9
2020-Jan-18 18:54 069 5 gusting 9
2020-Jan-18 18:48 106 6 gusting 12
2020-Jan-18 18:42 090 6 gusting 13
2020-Jan-18 18:36 100 3 gusting 11
2020-Jan-18 18:30 081 5 gusting 13
2020-Jan-18 18:24 101 5 gusting 9
2020-Jan-18 18:18 082 6 gusting 11
2020-Jan-18 18:12 096 6 gusting 9
2020-Jan-18 18:06 073 6 gusting 13
2020-Jan-18 18:00 059 8 gusting 12